sensor_id;sensor_type;location;lat;lon;timestamp;P1;durP1;ratioP1;P2;durP2;ratioP2
39128;SDS011;24864;49.940;19.770;2022-10-10T00:01:08;37.55;;;22.60;;
39128;SDS011;24864;49.940;19.770;2022-10-10T00:03:37;37.72;;;21.00;;
39128;SDS011;24864;49.940;19.770;2022-10-10T00:06:06;41.95;;;21.92;;
39128;SDS011;24864;49.940;19.770;2022-10-10T00:08:34;43.65;;;21.92;;
39128;SDS011;24864;49.940;19.770;2022-10-10T00:11:07;38.78;;;20.25;;
39128;SDS011;24864;49.940;19.770;2022-10-10T00:13:35;37.55;;;19.83;;
39128;SDS011;24864;49.940;19.770;2022-10-10T00:16:09;44.33;;;20.52;;
39128;SDS011;24864;49.940;19.770;2022-10-10T00:19:11;28.50;;;17.90;;
39128;SDS011;24864;49.940;19.770;2022-10-10T00:21:39;29.88;;;18.15;;
39128;SDS011;24864;49.940;19.770;2022-10-10T00:24:07;35.88;;;19.17;;
39128;SDS011;24864;49.940;19.770;2022-10-10T00:26:36;30.05;;;18.02;;
39128;SDS011;24864;49.940;19.770;2022-10-10T00:29:05;31.58;;;16.70;;
39128;SDS011;24864;49.940;19.770;2022-10-10T00:31:33;37.30;;;17.45;;
39128;SDS011;24864;49.940;19.770;2022-10-10T00:34:01;31.63;;;16.30;;
39128;SDS011;24864;49.940;19.770;2022-10-10T00:36:29;37.63;;;17.02;;
39128;SDS011;24864;49.940;19.770;2022-10-10T00:39:14;25.55;;;15.40;;
39128;SDS011;24864;49.940;19.770;2022-10-10T00:41:42;34.03;;;16.55;;
39128;SDS011;24864;49.940;19.770;2022-10-10T00:44:19;32.50;;;16.85;;
39128;SDS011;24864;49.940;19.770;2022-10-10T00:46:47;30.13;;;17.50;;
39128;SDS011;24864;49.940;19.770;2022-10-10T00:49:16;31.33;;;16.85;;
39128;SDS011;24864;49.940;19.770;2022-10-10T00:51:46;28.08;;;15.25;;
39128;SDS011;24864;49.940;19.770;2022-10-10T00:54:37;27.50;;;15.98;;
39128;SDS011;24864;49.940;19.770;2022-10-10T00:57:06;26.17;;;15.93;;
39128;SDS011;24864;49.940;19.770;2022-10-10T01:03:11;29.00;;;15.90;;
39128;SDS011;24864;49.940;19.770;2022-10-10T01:05:39;23.75;;;14.27;;
39128;SDS011;24864;49.940;19.770;2022-10-10T01:08:10;29.27;;;14.82;;
39128;SDS011;24864;49.940;19.770;2022-10-10T01:10:41;24.33;;;14.50;;
39128;SDS011;24864;49.940;19.770;2022-10-10T01:13:20;25.00;;;15.02;;
39128;SDS011;24864;49.940;19.770;2022-10-10T01:15:56;26.95;;;15.77;;
39128;SDS011;24864;49.940;19.770;2022-10-10T01:18:52;26.63;;;13.93;;
39128;SDS011;24864;49.940;19.770;2022-10-10T01:21:27;31.92;;;15.70;;
39128;SDS011;24864;49.940;19.770;2022-10-10T01:24:13;24.77;;;14.45;;
39128;SDS011;24864;49.940;19.770;2022-10-10T01:27:06;25.83;;;14.32;;
39128;SDS011;24864;49.940;19.770;2022-10-10T01:29:47;23.58;;;14.73;;
39128;SDS011;24864;49.940;19.770;2022-10-10T01:32:21;24.00;;;14.18;;
39128;SDS011;24864;49.940;19.770;2022-10-10T01:34:58;29.17;;;13.63;;
39128;SDS011;24864;49.940;19.770;2022-10-10T01:37:36;24.10;;;13.95;;
39128;SDS011;24864;49.940;19.770;2022-10-10T01:40:10;25.92;;;13.55;;
39128;SDS011;24864;49.940;19.770;2022-10-10T01:42:46;20.27;;;13.63;;
39128;SDS011;24864;49.940;19.770;2022-10-10T01:48:16;25.23;;;14.07;;
39128;SDS011;24864;49.940;19.770;2022-10-10T01:51:10;18.60;;;11.93;;
39128;SDS011;24864;49.940;19.770;2022-10-10T01:54:09;27.15;;;13.18;;
39128;SDS011;24864;49.940;19.770;2022-10-10T01:56:47;24.35;;;12.95;;
39128;SDS011;24864;49.940;19.770;2022-10-10T01:59:28;20.73;;;13.68;;
39128;SDS011;24864;49.940;19.770;2022-10-10T02:02:08;20.45;;;13.00;;
39128;SDS011;24864;49.940;19.770;2022-10-10T02:04:45;19.55;;;12.43;;
39128;SDS011;24864;49.940;19.770;2022-10-10T02:07:17;23.17;;;13.07;;
39128;SDS011;24864;49.940;19.770;2022-10-10T02:09:50;23.95;;;13.48;;
39128;SDS011;24864;49.940;19.770;2022-10-10T02:12:20;27.30;;;14.10;;
39128;SDS011;24864;49.940;19.770;2022-10-10T02:14:50;19.75;;;12.57;;
39128;SDS011;24864;49.940;19.770;2022-10-10T02:17:23;19.67;;;13.25;;
39128;SDS011;24864;49.940;19.770;2022-10-10T02:19:53;24.65;;;12.45;;
39128;SDS011;24864;49.940;19.770;2022-10-10T02:22:24;21.40;;;14.38;;
39128;SDS011;24864;49.940;19.770;2022-10-10T02:24:54;27.83;;;13.90;;
39128;SDS011;24864;49.940;19.770;2022-10-10T02:27:24;19.58;;;13.32;;
39128;SDS011;24864;49.940;19.770;2022-10-10T02:29:59;20.30;;;11.70;;
39128;SDS011;24864;49.940;19.770;2022-10-10T02:32:33;19.63;;;12.70;;
39128;SDS011;24864;49.940;19.770;2022-10-10T02:35:07;19.58;;;11.63;;
39128;SDS011;24864;49.940;19.770;2022-10-10T02:37:37;16.75;;;10.52;;
39128;SDS011;24864;49.940;19.770;2022-10-10T02:40:16;22.23;;;12.18;;
39128;SDS011;24864;49.940;19.770;2022-10-10T02:42:53;20.15;;;10.55;;
39128;SDS011;24864;49.940;19.770;2022-10-10T02:45:23;17.58;;;11.68;;
39128;SDS011;24864;49.940;19.770;2022-10-10T02:48:01;18.63;;;11.23;;
39128;SDS011;24864;49.940;19.770;2022-10-10T02:50:29;16.77;;;11.23;;
39128;SDS011;24864;49.940;19.770;2022-10-10T02:53:12;19.90;;;11.27;;
39128;SDS011;24864;49.940;19.770;2022-10-10T02:55:40;20.13;;;11.20;;
39128;SDS011;24864;49.940;19.770;2022-10-10T02:58:08;23.90;;;12.68;;
39128;SDS011;24864;49.940;19.770;2022-10-10T03:00:36;20.02;;;11.55;;
39128;SDS011;24864;49.940;19.770;2022-10-10T03:06:07;20.48;;;11.25;;
39128;SDS011;24864;49.940;19.770;2022-10-10T03:08:35;19.30;;;11.13;;
39128;SDS011;24864;49.940;19.770;2022-10-10T03:11:04;19.17;;;11.75;;
39128;SDS011;24864;49.940;19.770;2022-10-10T03:13:33;25.27;;;12.43;;
39128;SDS011;24864;49.940;19.770;2022-10-10T03:16:08;25.58;;;13.13;;
39128;SDS011;24864;49.940;19.770;2022-10-10T03:19:10;22.05;;;12.73;;
39128;SDS011;24864;49.940;19.770;2022-10-10T03:21:39;21.50;;;12.68;;
39128;SDS011;24864;49.940;19.770;2022-10-10T03:24:07;22.15;;;12.23;;
39128;SDS011;24864;49.940;19.770;2022-10-10T03:27:09;16.83;;;11.20;;
39128;SDS011;24864;49.940;19.770;2022-10-10T03:30:12;22.80;;;11.90;;
39128;SDS011;24864;49.940;19.770;2022-10-10T03:33:07;19.40;;;11.00;;
39128;SDS011;24864;49.940;19.770;2022-10-10T03:35:36;24.08;;;12.15;;
39128;SDS011;24864;49.940;19.770;2022-10-10T03:38:08;18.40;;;13.13;;
39128;SDS011;24864;49.940;19.770;2022-10-10T03:40:38;20.00;;;12.07;;
39128;SDS011;24864;49.940;19.770;2022-10-10T03:43:07;24.88;;;11.80;;
39128;SDS011;24864;49.940;19.770;2022-10-10T03:45:35;17.73;;;11.02;;
39128;SDS011;24864;49.940;19.770;2022-10-10T03:48:18;24.17;;;12.13;;
39128;SDS011;24864;49.940;19.770;2022-10-10T03:51:11;19.80;;;11.38;;
39128;SDS011;24864;49.940;19.770;2022-10-10T03:54:07;15.75;;;10.60;;
39128;SDS011;24864;49.940;19.770;2022-10-10T03:56:35;18.15;;;10.60;;
39128;SDS011;24864;49.940;19.770;2022-10-10T03:59:08;24.63;;;11.00;;
39128;SDS011;24864;49.940;19.770;2022-10-10T04:01:36;21.98;;;11.02;;
39128;SDS011;24864;49.940;19.770;2022-10-10T04:04:16;16.70;;;10.35;;
39128;SDS011;24864;49.940;19.770;2022-10-10T04:10:09;17.33;;;10.00;;
39128;SDS011;24864;49.940;19.770;2022-10-10T04:12:37;25.75;;;12.13;;
39128;SDS011;24864;49.940;19.770;2022-10-10T04:15:07;23.20;;;11.88;;
39128;SDS011;24864;49.940;19.770;2022-10-10T04:17:35;16.13;;;11.55;;
39128;SDS011;24864;49.940;19.770;2022-10-10T04:20:07;24.98;;;12.13;;
39128;SDS011;24864;49.940;19.770;2022-10-10T04:22:35;17.67;;;10.63;;
39128;SDS011;24864;49.940;19.770;2022-10-10T04:25:03;16.90;;;11.05;;
39128;SDS011;24864;49.940;19.770;2022-10-10T04:28:21;18.25;;;10.40;;
39128;SDS011;24864;49.940;19.770;2022-10-10T04:30:49;15.50;;;10.35;;
39128;SDS011;24864;49.940;19.770;2022-10-10T04:33:18;16.08;;;9.75;;
39128;SDS011;24864;49.940;19.770;2022-10-10T04:35:46;20.02;;;10.15;;
39128;SDS011;24864;49.940;19.770;2022-10-10T04:38:15;18.63;;;10.20;;
39128;SDS011;24864;49.940;19.770;2022-10-10T04:41:38;18.10;;;11.30;;
39128;SDS011;24864;49.940;19.770;2022-10-10T04:44:25;16.60;;;11.15;;
39128;SDS011;24864;49.940;19.770;2022-10-10T04:46:53;16.60;;;11.48;;
39128;SDS011;24864;49.940;19.770;2022-10-10T04:49:21;17.10;;;11.07;;
39128;SDS011;24864;49.940;19.770;2022-10-10T04:51:49;23.05;;;14.27;;
39128;SDS011;24864;49.940;19.770;2022-10-10T04:54:17;22.17;;;12.77;;
39128;SDS011;24864;49.940;19.770;2022-10-10T04:56:45;24.48;;;14.20;;
39128;SDS011;24864;49.940;19.770;2022-10-10T04:59:13;29.20;;;13.75;;
39128;SDS011;24864;49.940;19.770;2022-10-10T05:01:42;30.23;;;15.18;;
39128;SDS011;24864;49.940;19.770;2022-10-10T05:04:10;24.65;;;14.57;;
39128;SDS011;24864;49.940;19.770;2022-10-10T05:06:38;27.80;;;15.85;;
39128;SDS011;24864;49.940;19.770;2022-10-10T05:09:06;23.25;;;15.07;;
39128;SDS011;24864;49.940;19.770;2022-10-10T05:11:34;30.27;;;16.50;;
39128;SDS011;24864;49.940;19.770;2022-10-10T05:14:02;31.45;;;16.10;;
39128;SDS011;24864;49.940;19.770;2022-10-10T05:16:30;26.23;;;15.38;;
39128;SDS011;24864;49.940;19.770;2022-10-10T05:18:59;24.25;;;15.45;;
39128;SDS011;24864;49.940;19.770;2022-10-10T05:21:28;23.55;;;15.02;;
39128;SDS011;24864;49.940;19.770;2022-10-10T05:23:56;27.80;;;17.33;;
39128;SDS011;24864;49.940;19.770;2022-10-10T05:26:25;25.58;;;16.75;;
39128;SDS011;24864;49.940;19.770;2022-10-10T05:28:53;27.23;;;17.95;;
39128;SDS011;24864;49.940;19.770;2022-10-10T05:31:21;32.42;;;19.83;;
39128;SDS011;24864;49.940;19.770;2022-10-10T05:33:49;32.65;;;18.45;;
39128;SDS011;24864;49.940;19.770;2022-10-10T05:36:18;30.73;;;19.67;;
39128;SDS011;24864;49.940;19.770;2022-10-10T05:38:46;29.13;;;18.55;;
39128;SDS011;24864;49.940;19.770;2022-10-10T05:41:14;31.83;;;18.52;;
39128;SDS011;24864;49.940;19.770;2022-10-10T05:43:41;24.95;;;17.27;;
39128;SDS011;24864;49.940;19.770;2022-10-10T05:46:10;24.25;;;16.65;;
39128;SDS011;24864;49.940;19.770;2022-10-10T05:48:38;34.40;;;17.30;;
39128;SDS011;24864;49.940;19.770;2022-10-10T05:51:06;24.13;;;15.02;;
39128;SDS011;24864;49.940;19.770;2022-10-10T05:53:35;27.15;;;15.73;;
39128;SDS011;24864;49.940;19.770;2022-10-10T05:56:03;78.93;;;19.77;;
39128;SDS011;24864;49.940;19.770;2022-10-10T05:58:31;160.65;;;25.15;;
39128;SDS011;24864;49.940;19.770;2022-10-10T06:01:01;60.13;;;23.83;;
39128;SDS011;24864;49.940;19.770;2022-10-10T06:03:31;42.20;;;22.13;;
39128;SDS011;24864;49.940;19.770;2022-10-10T06:05:59;34.50;;;20.45;;
39128;SDS011;24864;49.940;19.770;2022-10-10T06:08:27;29.20;;;19.75;;
39128;SDS011;24864;49.940;19.770;2022-10-10T06:11:01;27.67;;;17.85;;
39128;SDS011;24864;49.940;19.770;2022-10-10T06:13:31;30.95;;;19.98;;
39128;SDS011;24864;49.940;19.770;2022-10-10T06:15:59;35.40;;;21.98;;
39128;SDS011;24864;49.940;19.770;2022-10-10T06:18:26;36.88;;;21.50;;
39128;SDS011;24864;49.940;19.770;2022-10-10T06:20:54;33.17;;;21.83;;
39128;SDS011;24864;49.940;19.770;2022-10-10T06:23:27;41.20;;;22.65;;
39128;SDS011;24864;49.940;19.770;2022-10-10T06:25:56;33.83;;;20.88;;
39128;SDS011;24864;49.940;19.770;2022-10-10T06:28:25;35.53;;;20.95;;
39128;SDS011;24864;49.940;19.770;2022-10-10T06:30:53;27.70;;;18.45;;
39128;SDS011;24864;49.940;19.770;2022-10-10T06:33:21;36.20;;;22.85;;
39128;SDS011;24864;49.940;19.770;2022-10-10T06:35:49;35.70;;;22.60;;
39128;SDS011;24864;49.940;19.770;2022-10-10T06:38:17;36.85;;;21.73;;
39128;SDS011;24864;49.940;19.770;2022-10-10T06:40:45;36.53;;;21.90;;
39128;SDS011;24864;49.940;19.770;2022-10-10T06:43:13;35.13;;;21.80;;
39128;SDS011;24864;49.940;19.770;2022-10-10T06:45:45;40.45;;;22.30;;
39128;SDS011;24864;49.940;19.770;2022-10-10T06:48:16;35.05;;;19.38;;
39128;SDS011;24864;49.940;19.770;2022-10-10T06:50:53;30.48;;;18.58;;
39128;SDS011;24864;49.940;19.770;2022-10-10T06:53:22;31.00;;;20.15;;
39128;SDS011;24864;49.940;19.770;2022-10-10T06:55:51;31.00;;;19.73;;
39128;SDS011;24864;49.940;19.770;2022-10-10T06:58:19;28.23;;;16.73;;
39128;SDS011;24864;49.940;19.770;2022-10-10T07:00:49;23.00;;;15.70;;
39128;SDS011;24864;49.940;19.770;2022-10-10T07:03:18;29.38;;;17.33;;
39128;SDS011;24864;49.940;19.770;2022-10-10T07:05:47;26.98;;;16.88;;
39128;SDS011;24864;49.940;19.770;2022-10-10T07:08:17;34.78;;;17.45;;
39128;SDS011;24864;49.940;19.770;2022-10-10T07:10:46;36.55;;;18.15;;
39128;SDS011;24864;49.940;19.770;2022-10-10T07:13:14;26.55;;;16.52;;
39128;SDS011;24864;49.940;19.770;2022-10-10T07:15:42;30.33;;;17.67;;
39128;SDS011;24864;49.940;19.770;2022-10-10T07:18:12;27.08;;;16.55;;
39128;SDS011;24864;49.940;19.770;2022-10-10T07:20:40;33.85;;;18.42;;
39128;SDS011;24864;49.940;19.770;2022-10-10T07:23:08;28.20;;;15.57;;
39128;SDS011;24864;49.940;19.770;2022-10-10T07:25:36;25.38;;;14.93;;
39128;SDS011;24864;49.940;19.770;2022-10-10T07:28:05;24.77;;;15.15;;
39128;SDS011;24864;49.940;19.770;2022-10-10T07:30:37;26.00;;;14.35;;
39128;SDS011;24864;49.940;19.770;2022-10-10T07:33:06;22.27;;;13.43;;
39128;SDS011;24864;49.940;19.770;2022-10-10T07:35:35;26.17;;;13.48;;
39128;SDS011;24864;49.940;19.770;2022-10-10T07:38:03;20.02;;;12.77;;
39128;SDS011;24864;49.940;19.770;2022-10-10T07:40:31;22.58;;;12.23;;
39128;SDS011;24864;49.940;19.770;2022-10-10T07:42:59;17.05;;;11.20;;
39128;SDS011;24864;49.940;19.770;2022-10-10T07:45:27;17.73;;;10.32;;
39128;SDS011;24864;49.940;19.770;2022-10-10T07:47:55;21.67;;;10.02;;
39128;SDS011;24864;49.940;19.770;2022-10-10T07:50:23;22.38;;;9.70;;
39128;SDS011;24864;49.940;19.770;2022-10-10T07:52:52;24.85;;;11.15;;
39128;SDS011;24864;49.940;19.770;2022-10-10T07:55:20;15.93;;;7.47;;
39128;SDS011;24864;49.940;19.770;2022-10-10T07:57:48;13.90;;;8.88;;
39128;SDS011;24864;49.940;19.770;2022-10-10T08:00:19;18.25;;;9.68;;
39128;SDS011;24864;49.940;19.770;2022-10-10T08:02:47;12.07;;;6.88;;
39128;SDS011;24864;49.940;19.770;2022-10-10T08:05:16;9.82;;;6.82;;
39128;SDS011;24864;49.940;19.770;2022-10-10T08:07:44;9.38;;;6.30;;
39128;SDS011;24864;49.940;19.770;2022-10-10T08:10:14;10.82;;;6.03;;
39128;SDS011;24864;49.940;19.770;2022-10-10T08:12:42;11.25;;;6.72;;
39128;SDS011;24864;49.940;19.770;2022-10-10T08:15:11;11.18;;;5.80;;
39128;SDS011;24864;49.940;19.770;2022-10-10T08:17:39;7.57;;;5.70;;
39128;SDS011;24864;49.940;19.770;2022-10-10T08:20:07;10.82;;;5.80;;
39128;SDS011;24864;49.940;19.770;2022-10-10T08:22:35;8.52;;;5.10;;
39128;SDS011;24864;49.940;19.770;2022-10-10T08:25:04;8.35;;;5.07;;
39128;SDS011;24864;49.940;19.770;2022-10-10T08:27:34;14.52;;;4.82;;
39128;SDS011;24864;49.940;19.770;2022-10-10T08:30:02;9.23;;;5.25;;
39128;SDS011;24864;49.940;19.770;2022-10-10T08:32:30;14.68;;;4.93;;
39128;SDS011;24864;49.940;19.770;2022-10-10T08:34:58;6.15;;;4.30;;
39128;SDS011;24864;49.940;19.770;2022-10-10T08:37:26;6.38;;;4.18;;
39128;SDS011;24864;49.940;19.770;2022-10-10T08:40:02;7.13;;;4.65;;
39128;SDS011;24864;49.940;19.770;2022-10-10T08:42:31;5.93;;;4.15;;
39128;SDS011;24864;49.940;19.770;2022-10-10T08:45:14;9.38;;;4.18;;
39128;SDS011;24864;49.940;19.770;2022-10-10T08:47:45;10.02;;;3.85;;
39128;SDS011;24864;49.940;19.770;2022-10-10T08:50:19;12.13;;;4.72;;
39128;SDS011;24864;49.940;19.770;2022-10-10T08:52:51;6.68;;;3.78;;
39128;SDS011;24864;49.940;19.770;2022-10-10T08:55:25;3.70;;;3.25;;
39128;SDS011;24864;49.940;19.770;2022-10-10T08:58:02;5.82;;;3.58;;
39128;SDS011;24864;49.940;19.770;2022-10-10T09:00:36;4.32;;;3.40;;
39128;SDS011;24864;49.940;19.770;2022-10-10T09:03:11;5.97;;;2.90;;
39128;SDS011;24864;49.940;19.770;2022-10-10T09:05:49;8.88;;;2.83;;
39128;SDS011;24864;49.940;19.770;2022-10-10T09:08:32;6.82;;;3.53;;
39128;SDS011;24864;49.940;19.770;2022-10-10T09:11:09;4.60;;;3.00;;
39128;SDS011;24864;49.940;19.770;2022-10-10T09:13:46;7.45;;;3.20;;
39128;SDS011;24864;49.940;19.770;2022-10-10T09:16:28;5.70;;;3.38;;
39128;SDS011;24864;49.940;19.770;2022-10-10T09:19:04;5.93;;;3.80;;
39128;SDS011;24864;49.940;19.770;2022-10-10T09:21:44;7.18;;;3.45;;
39128;SDS011;24864;49.940;19.770;2022-10-10T09:24:15;4.20;;;3.30;;
39128;SDS011;24864;49.940;19.770;2022-10-10T09:26:46;6.50;;;2.85;;
39128;SDS011;24864;49.940;19.770;2022-10-10T09:29:23;3.87;;;2.87;;
39128;SDS011;24864;49.940;19.770;2022-10-10T09:31:56;3.42;;;2.60;;
39128;SDS011;24864;49.940;19.770;2022-10-10T09:34:30;8.20;;;2.47;;
39128;SDS011;24864;49.940;19.770;2022-10-10T09:37:00;4.97;;;2.83;;
39128;SDS011;24864;49.940;19.770;2022-10-10T09:39:32;5.30;;;2.65;;
39128;SDS011;24864;49.940;19.770;2022-10-10T09:42:08;8.55;;;3.28;;
39128;SDS011;24864;49.940;19.770;2022-10-10T09:44:39;5.55;;;2.70;;
39128;SDS011;24864;49.940;19.770;2022-10-10T09:47:11;4.45;;;2.50;;
39128;SDS011;24864;49.940;19.770;2022-10-10T09:49:40;3.00;;;2.53;;
39128;SDS011;24864;49.940;19.770;2022-10-10T09:52:16;6.38;;;2.30;;
39128;SDS011;24864;49.940;19.770;2022-10-10T09:54:50;3.47;;;2.10;;
39128;SDS011;24864;49.940;19.770;2022-10-10T09:59:53;4.13;;;2.60;;
39128;SDS011;24864;49.940;19.770;2022-10-10T10:02:22;4.05;;;2.20;;
39128;SDS011;24864;49.940;19.770;2022-10-10T10:04:51;7.30;;;2.83;;
39128;SDS011;24864;49.940;19.770;2022-10-10T10:07:22;3.88;;;2.28;;
39128;SDS011;24864;49.940;19.770;2022-10-10T10:09:54;7.20;;;2.58;;
39128;SDS011;24864;49.940;19.770;2022-10-10T10:12:26;5.20;;;2.65;;
39128;SDS011;24864;49.940;19.770;2022-10-10T10:14:59;6.68;;;3.28;;
39128;SDS011;24864;49.940;19.770;2022-10-10T10:17:30;4.35;;;2.60;;
39128;SDS011;24864;49.940;19.770;2022-10-10T10:19:58;4.38;;;2.55;;
39128;SDS011;24864;49.940;19.770;2022-10-10T10:22:30;7.50;;;2.88;;
39128;SDS011;24864;49.940;19.770;2022-10-10T10:25:27;3.38;;;2.38;;
39128;SDS011;24864;49.940;19.770;2022-10-10T10:28:14;6.82;;;3.78;;
39128;SDS011;24864;49.940;19.770;2022-10-10T10:30:47;8.32;;;4.03;;
39128;SDS011;24864;49.940;19.770;2022-10-10T10:33:23;7.07;;;4.03;;
39128;SDS011;24864;49.940;19.770;2022-10-10T10:36:04;6.80;;;4.30;;
39128;SDS011;24864;49.940;19.770;2022-10-10T10:38:41;9.35;;;4.25;;
39128;SDS011;24864;49.940;19.770;2022-10-10T10:41:13;17.95;;;5.47;;
39128;SDS011;24864;49.940;19.770;2022-10-10T10:43:53;8.10;;;5.10;;
39128;SDS011;24864;49.940;19.770;2022-10-10T10:49:13;6.97;;;2.97;;
39128;SDS011;24864;49.940;19.770;2022-10-10T10:51:50;4.10;;;2.85;;
39128;SDS011;24864;49.940;19.770;2022-10-10T10:54:39;4.00;;;2.60;;
39128;SDS011;24864;49.940;19.770;2022-10-10T10:57:17;3.95;;;2.55;;
39128;SDS011;24864;49.940;19.770;2022-10-10T11:00:08;3.55;;;2.88;;
39128;SDS011;24864;49.940;19.770;2022-10-10T11:02:57;6.43;;;3.55;;
39128;SDS011;24864;49.940;19.770;2022-10-10T11:05:58;4.15;;;3.30;;
39128;SDS011;24864;49.940;19.770;2022-10-10T11:08:42;5.80;;;3.15;;
39128;SDS011;24864;49.940;19.770;2022-10-10T11:11:21;7.15;;;3.83;;
39128;SDS011;24864;49.940;19.770;2022-10-10T11:14:00;4.47;;;2.30;;
39128;SDS011;24864;49.940;19.770;2022-10-10T11:16:36;3.58;;;2.75;;
39128;SDS011;24864;49.940;19.770;2022-10-10T11:19:20;4.53;;;2.67;;
39128;SDS011;24864;49.940;19.770;2022-10-10T11:21:56;4.65;;;3.00;;
39128;SDS011;24864;49.940;19.770;2022-10-10T11:24:33;4.00;;;2.53;;
39128;SDS011;24864;49.940;19.770;2022-10-10T11:27:09;4.25;;;2.65;;
39128;SDS011;24864;49.940;19.770;2022-10-10T11:29:55;6.68;;;2.60;;
39128;SDS011;24864;49.940;19.770;2022-10-10T11:32:27;6.88;;;3.20;;
39128;SDS011;24864;49.940;19.770;2022-10-10T11:35:04;5.53;;;2.80;;
39128;SDS011;24864;49.940;19.770;2022-10-10T11:37:40;7.57;;;2.95;;
39128;SDS011;24864;49.940;19.770;2022-10-10T11:40:26;5.97;;;3.15;;
39128;SDS011;24864;49.940;19.770;2022-10-10T11:43:00;4.47;;;2.60;;
39128;SDS011;24864;49.940;19.770;2022-10-10T11:45:33;6.03;;;3.33;;
39128;SDS011;24864;49.940;19.770;2022-10-10T11:48:09;4.40;;;3.03;;
39128;SDS011;24864;49.940;19.770;2022-10-10T11:50:45;8.68;;;3.63;;
39128;SDS011;24864;49.940;19.770;2022-10-10T11:53:20;6.43;;;3.17;;
39128;SDS011;24864;49.940;19.770;2022-10-10T11:55:53;7.45;;;3.58;;
39128;SDS011;24864;49.940;19.770;2022-10-10T11:58:27;8.68;;;2.78;;
39128;SDS011;24864;49.940;19.770;2022-10-10T12:01:00;3.45;;;2.92;;
39128;SDS011;24864;49.940;19.770;2022-10-10T12:03:32;4.65;;;3.00;;
39128;SDS011;24864;49.940;19.770;2022-10-10T12:06:03;6.22;;;3.20;;
39128;SDS011;24864;49.940;19.770;2022-10-10T12:08:39;7.85;;;3.15;;
39128;SDS011;24864;49.940;19.770;2022-10-10T12:11:15;5.15;;;2.97;;
39128;SDS011;24864;49.940;19.770;2022-10-10T12:13:46;7.88;;;3.58;;
39128;SDS011;24864;49.940;19.770;2022-10-10T12:16:20;5.68;;;3.53;;
39128;SDS011;24864;49.940;19.770;2022-10-10T12:18:59;6.88;;;3.70;;
39128;SDS011;24864;49.940;19.770;2022-10-10T12:21:30;6.55;;;3.03;;
39128;SDS011;24864;49.940;19.770;2022-10-10T12:24:16;7.82;;;3.67;;
39128;SDS011;24864;49.940;19.770;2022-10-10T12:32:45;5.80;;;3.78;;
39128;SDS011;24864;49.940;19.770;2022-10-10T12:38:13;5.90;;;3.85;;
39128;SDS011;24864;49.940;19.770;2022-10-10T12:43:49;5.65;;;3.45;;
39128;SDS011;24864;49.940;19.770;2022-10-10T12:46:40;6.97;;;3.33;;
39128;SDS011;24864;49.940;19.770;2022-10-10T12:49:19;5.70;;;3.08;;
39128;SDS011;24864;49.940;19.770;2022-10-10T12:51:58;8.48;;;3.40;;
39128;SDS011;24864;49.940;19.770;2022-10-10T12:54:28;5.35;;;3.38;;
39128;SDS011;24864;49.940;19.770;2022-10-10T12:57:04;6.97;;;3.45;;
39128;SDS011;24864;49.940;19.770;2022-10-10T12:59:36;9.02;;;3.50;;
39128;SDS011;24864;49.940;19.770;2022-10-10T13:02:11;7.25;;;3.50;;
39128;SDS011;24864;49.940;19.770;2022-10-10T13:04:43;4.95;;;3.25;;
39128;SDS011;24864;49.940;19.770;2022-10-10T13:07:14;4.97;;;3.35;;
39128;SDS011;24864;49.940;19.770;2022-10-10T13:09:45;4.25;;;3.45;;
39128;SDS011;24864;49.940;19.770;2022-10-10T13:12:24;7.00;;;3.15;;
39128;SDS011;24864;49.940;19.770;2022-10-10T13:14:54;5.32;;;3.55;;
39128;SDS011;24864;49.940;19.770;2022-10-10T13:17:25;5.57;;;3.63;;
39128;SDS011;24864;49.940;19.770;2022-10-10T13:19:55;4.55;;;3.20;;
39128;SDS011;24864;49.940;19.770;2022-10-10T13:22:24;7.82;;;3.85;;
39128;SDS011;24864;49.940;19.770;2022-10-10T13:24:53;7.03;;;3.83;;
39128;SDS011;24864;49.940;19.770;2022-10-10T13:27:23;4.63;;;3.60;;
39128;SDS011;24864;49.940;19.770;2022-10-10T13:29:54;8.50;;;3.72;;
39128;SDS011;24864;49.940;19.770;2022-10-10T13:32:23;8.23;;;4.30;;
39128;SDS011;24864;49.940;19.770;2022-10-10T13:34:55;6.20;;;3.58;;
39128;SDS011;24864;49.940;19.770;2022-10-10T13:37:25;5.03;;;3.43;;
39128;SDS011;24864;49.940;19.770;2022-10-10T13:39:54;7.63;;;3.45;;
39128;SDS011;24864;49.940;19.770;2022-10-10T13:42:27;7.28;;;3.65;;
39128;SDS011;24864;49.940;19.770;2022-10-10T13:44:59;8.73;;;3.63;;
39128;SDS011;24864;49.940;19.770;2022-10-10T13:47:45;5.10;;;3.17;;
39128;SDS011;24864;49.940;19.770;2022-10-10T13:50:21;4.70;;;3.08;;
39128;SDS011;24864;49.940;19.770;2022-10-10T13:55:49;4.88;;;3.25;;
39128;SDS011;24864;49.940;19.770;2022-10-10T13:58:24;7.85;;;3.47;;
39128;SDS011;24864;49.940;19.770;2022-10-10T14:00:53;5.55;;;3.03;;
39128;SDS011;24864;49.940;19.770;2022-10-10T14:03:24;8.10;;;3.47;;
39128;SDS011;24864;49.940;19.770;2022-10-10T14:05:53;5.00;;;3.42;;
39128;SDS011;24864;49.940;19.770;2022-10-10T14:08:23;5.78;;;3.70;;
39128;SDS011;24864;49.940;19.770;2022-10-10T14:10:54;5.68;;;3.15;;
39128;SDS011;24864;49.940;19.770;2022-10-10T14:13:23;8.38;;;3.60;;
39128;SDS011;24864;49.940;19.770;2022-10-10T14:15:51;6.93;;;3.30;;
39128;SDS011;24864;49.940;19.770;2022-10-10T14:18:20;7.47;;;3.25;;
39128;SDS011;24864;49.940;19.770;2022-10-10T14:20:51;15.18;;;4.32;;
39128;SDS011;24864;49.940;19.770;2022-10-10T14:23:21;6.68;;;3.72;;
39128;SDS011;24864;49.940;19.770;2022-10-10T14:25:49;7.18;;;3.78;;
39128;SDS011;24864;49.940;19.770;2022-10-10T14:28:17;8.77;;;3.60;;
39128;SDS011;24864;49.940;19.770;2022-10-10T14:30:48;15.82;;;4.43;;
39128;SDS011;24864;49.940;19.770;2022-10-10T14:33:17;10.15;;;4.65;;
39128;SDS011;24864;49.940;19.770;2022-10-10T14:35:47;8.27;;;4.00;;
39128;SDS011;24864;49.940;19.770;2022-10-10T14:38:18;9.52;;;3.33;;
39128;SDS011;24864;49.940;19.770;2022-10-10T14:40:47;11.55;;;3.88;;
39128;SDS011;24864;49.940;19.770;2022-10-10T14:43:18;5.90;;;3.97;;
39128;SDS011;24864;49.940;19.770;2022-10-10T14:45:48;6.88;;;4.10;;
39128;SDS011;24864;49.940;19.770;2022-10-10T14:48:17;6.68;;;3.75;;
39128;SDS011;24864;49.940;19.770;2022-10-10T14:50:46;9.68;;;3.65;;
39128;SDS011;24864;49.940;19.770;2022-10-10T14:53:15;6.00;;;3.15;;
39128;SDS011;24864;49.940;19.770;2022-10-10T14:55:45;10.27;;;4.55;;
39128;SDS011;24864;49.940;19.770;2022-10-10T14:58:14;6.53;;;4.00;;
39128;SDS011;24864;49.940;19.770;2022-10-10T15:00:44;7.20;;;4.32;;
39128;SDS011;24864;49.940;19.770;2022-10-10T15:03:13;8.98;;;4.55;;
39128;SDS011;24864;49.940;19.770;2022-10-10T15:05:41;6.40;;;4.57;;
39128;SDS011;24864;49.940;19.770;2022-10-10T15:08:09;7.40;;;5.07;;
39128;SDS011;24864;49.940;19.770;2022-10-10T15:10:39;6.22;;;4.30;;
39128;SDS011;24864;49.940;19.770;2022-10-10T15:13:09;8.45;;;4.70;;
39128;SDS011;24864;49.940;19.770;2022-10-10T15:15:38;6.38;;;4.32;;
39128;SDS011;24864;49.940;19.770;2022-10-10T15:18:06;8.55;;;4.00;;
39128;SDS011;24864;49.940;19.770;2022-10-10T15:20:55;10.75;;;5.70;;
39128;SDS011;24864;49.940;19.770;2022-10-10T15:23:23;9.93;;;5.15;;
39128;SDS011;24864;49.940;19.770;2022-10-10T15:25:52;11.27;;;6.60;;
39128;SDS011;24864;49.940;19.770;2022-10-10T15:28:21;16.17;;;10.30;;